createdAt,value
2022-10-20T00:00:27.886Z,101715.60
2022-10-20T00:05:50.599Z,101718.65
2022-10-20T00:10:57.110Z,101717.47
2022-10-20T00:16:00.283Z,101715.48
2022-10-20T00:21:14.800Z,101725.09
2022-10-20T00:26:25.406Z,101726.66
2022-10-20T00:31:29.415Z,101728.27
2022-10-20T00:36:32.155Z,101725.52
2022-10-20T00:41:34.963Z,101729.41
2022-10-20T00:46:40.178Z,101726.13
2022-10-20T00:51:42.868Z,101721.94
2022-10-20T00:56:47.284Z,101725.10
2022-10-20T01:01:50.122Z,101716.08
2022-10-20T01:06:53.018Z,101719.79
2022-10-20T01:12:23.485Z,101714.61
2022-10-20T01:17:38.166Z,101720.93
2022-10-20T01:23:05.820Z,101727.77
2022-10-20T01:28:22.557Z,101726.42
2022-10-20T01:33:41.517Z,101723.70
2022-10-20T01:38:51.318Z,101718.70
2022-10-20T01:43:54.355Z,101718.64
2022-10-20T01:49:01.058Z,101725.27
2022-10-20T01:54:03.848Z,101725.42
2022-10-20T01:59:13.382Z,101720.70
2022-10-20T02:04:15.988Z,101719.84
2022-10-20T02:15:02.236Z,101717.07
2022-10-20T02:20:07.046Z,101713.95
2022-10-20T02:25:13.964Z,101712.83
2022-10-20T02:30:18.209Z,101712.76
2022-10-20T02:35:23.680Z,101713.82
2022-10-20T02:40:26.503Z,101713.24
2022-10-20T02:45:29.120Z,101714.68
2022-10-20T02:50:31.865Z,101714.45
2022-10-20T02:55:35.108Z,101721.90
2022-10-20T03:00:38.092Z,101719.50
2022-10-20T03:05:41.954Z,101720.08
2022-10-20T03:10:44.571Z,101717.09
2022-10-20T03:15:47.232Z,101718.20
2022-10-20T03:20:53.648Z,101721.54
2022-10-20T03:26:06.930Z,101727.65
2022-10-20T03:31:09.689Z,101731.90
2022-10-20T03:36:12.412Z,101739.59
2022-10-20T03:41:15.104Z,101745.08
2022-10-20T03:46:17.733Z,101742.52
2022-10-20T03:51:20.456Z,101741.41
2022-10-20T03:56:23.112Z,101742.70
2022-10-20T04:01:31.281Z,101748.48
2022-10-20T04:06:34.280Z,101750.84
2022-10-20T04:11:37.430Z,101760.34
2022-10-20T04:16:42.095Z,101761.91
2022-10-20T04:21:44.782Z,101763.86
2022-10-20T04:31:56.428Z,101752.68
2022-10-20T04:36:59.075Z,101760.02
2022-10-20T04:42:01.761Z,101761.98
2022-10-20T04:47:04.509Z,101767.55
2022-10-20T04:52:08.614Z,101767.36
2022-10-20T04:57:11.301Z,101767.62
2022-10-20T05:02:13.972Z,101770.21
2022-10-20T05:07:16.697Z,101770.59
2022-10-20T05:12:19.331Z,101771.46
2022-10-20T05:17:21.992Z,101775.84
2022-10-20T05:22:24.781Z,101775.38
2022-10-20T05:27:28.561Z,101779.55
2022-10-20T05:32:31.354Z,101779.83
2022-10-20T05:37:35.484Z,101779.96
2022-10-20T05:42:38.494Z,101794.88
2022-10-20T05:47:42.896Z,101801.89
2022-10-20T05:52:46.074Z,101808.95
2022-10-20T05:57:52.154Z,101816.67
2022-10-20T06:02:54.842Z,101820.35
2022-10-20T06:07:57.641Z,101824.10
2022-10-20T06:13:00.292Z,101827.06
2022-10-20T06:18:03.285Z,101826.91
2022-10-20T06:23:06.115Z,101835.02
2022-10-20T06:28:08.833Z,101838.84
2022-10-20T06:33:18.776Z,101840.25
2022-10-20T06:38:21.486Z,101838.77
2022-10-20T06:43:24.169Z,101841.08
2022-10-20T06:48:27.385Z,101848.42
2022-10-20T06:53:30.612Z,101851.67
2022-10-20T06:58:37.511Z,101857.64
2022-10-20T07:03:40.610Z,101864.39
2022-10-20T07:08:43.624Z,101866.13
2022-10-20T07:13:47.179Z,101867.23
2022-10-20T07:18:50.110Z,101866.50
2022-10-20T07:23:52.919Z,101876.08
2022-10-20T07:28:58.164Z,101874.91
2022-10-20T07:34:12.863Z,101876.13
2022-10-20T07:39:16.278Z,101880.35
2022-10-20T07:44:19.194Z,101888.62
2022-10-20T07:54:45.138Z,101884.79
2022-10-20T07:59:47.767Z,101888.14
2022-10-20T08:04:50.767Z,101887.98
2022-10-20T08:09:53.383Z,101888.55
2022-10-20T08:14:56.119Z,101883.79
2022-10-20T08:20:18.912Z,101882.52
2022-10-20T08:25:22.360Z,101884.94
2022-10-20T08:30:25.107Z,101881.31
2022-10-20T08:35:28.178Z,101888.45
2022-10-20T08:40:31.120Z,101885.57
2022-10-20T08:45:38.206Z,101886.48
2022-10-20T08:50:44.703Z,101888.02
2022-10-20T08:55:47.465Z,101885.51
2022-10-20T09:00:57.711Z,101886.95
2022-10-20T09:06:16.947Z,101891.52
2022-10-20T09:11:24.461Z,101883.38
2022-10-20T09:16:40.797Z,101888.40
2022-10-20T09:21:46.900Z,101886.59
2022-10-20T09:26:59.616Z,101888.79
2022-10-20T09:32:16.686Z,101888.67
2022-10-20T09:37:25.635Z,101886.86
2022-10-20T09:42:30.477Z,101889.08
2022-10-20T09:47:34.012Z,101885.54
2022-10-20T09:52:47.640Z,101883.23
2022-10-20T09:57:50.655Z,101884.48
2022-10-20T10:03:22.435Z,101883.99
2022-10-20T10:08:42.182Z,101878.27
2022-10-20T10:13:47.177Z,101873.48
2022-10-20T10:19:05.042Z,101866.70
2022-10-20T10:24:43.869Z,101862.35
2022-10-20T10:29:46.553Z,101863.33
2022-10-20T10:35:21.369Z,101861.93
2022-10-20T10:40:42.135Z,101857.40
2022-10-20T10:45:52.896Z,101853.50
2022-10-20T10:51:06.678Z,101849.67
2022-10-20T10:56:42.926Z,101852.41
2022-10-20T11:02:27.455Z,101841.75
2022-10-20T11:08:08.564Z,101839.44
2022-10-20T11:13:43.586Z,101832.07
2022-10-20T11:19:14.658Z,101832.57
2022-10-20T11:24:42.822Z,101822.86
2022-10-20T11:29:55.251Z,101809.69
2022-10-20T11:35:35.095Z,101808.62
2022-10-20T11:40:45.474Z,101798.23
2022-10-20T11:45:54.655Z,101795.08
2022-10-20T11:51:29.922Z,101792.73
2022-10-20T11:57:06.671Z,101787.98
2022-10-20T12:02:47.000Z,101774.91
2022-10-20T12:08:28.233Z,101771.11
2022-10-20T12:14:02.362Z,101766.69
2022-10-20T12:19:06.992Z,101764.19
2022-10-20T12:24:39.110Z,101760.81
2022-10-20T12:29:45.746Z,101760.69
2022-10-20T12:34:50.604Z,101761.21
2022-10-20T12:39:55.368Z,101756.42
2022-10-20T12:45:20.539Z,101758.39
2022-10-20T12:50:47.056Z,101754.06
2022-10-20T12:56:09.118Z,101747.02
2022-10-20T13:01:12.413Z,101747.92
2022-10-20T13:06:24.760Z,101743.11
2022-10-20T13:11:59.968Z,101743.66
2022-10-20T13:17:20.871Z,101737.06
2022-10-20T13:22:43.149Z,101741.38
2022-10-20T13:27:49.198Z,101736.64
2022-10-20T13:33:11.488Z,101735.67
2022-10-20T13:38:31.427Z,101737.36
2022-10-20T13:44:05.674Z,101734.52
2022-10-20T13:49:26.525Z,101729.82
2022-10-20T13:54:33.009Z,101728.35
2022-10-20T13:59:39.508Z,101719.08
2022-10-20T14:04:44.680Z,101717.37
2022-10-20T14:09:49.310Z,101716.10
2022-10-20T14:14:59.393Z,101713.77
2022-10-20T14:20:29.291Z,101709.48
2022-10-20T14:25:32.049Z,101708.81
2022-10-20T14:30:38.722Z,101706.04
2022-10-20T14:35:55.955Z,101702.04
2022-10-20T14:40:58.885Z,101705.58
2022-10-20T14:46:02.433Z,101702.94
2022-10-20T14:51:28.361Z,101697.39
2022-10-20T14:56:31.191Z,101695.04
2022-10-20T15:01:33.921Z,101689.48
2022-10-20T15:06:36.731Z,101683.14
2022-10-20T15:11:39.526Z,101676.63
2022-10-20T15:16:45.576Z,101672.59
2022-10-20T15:21:48.413Z,101667.34
2022-10-20T15:26:51.487Z,101668.47
2022-10-20T15:31:54.252Z,101668.51
2022-10-20T15:36:57.038Z,101665.17
2022-10-20T15:41:59.795Z,101664.30
2022-10-20T15:47:02.590Z,101667.73
2022-10-20T15:52:05.425Z,101666.02
2022-10-20T15:57:08.209Z,101667.77
2022-10-20T16:02:13.189Z,101669.16
2022-10-20T16:07:15.961Z,101664.91
2022-10-20T16:12:19.177Z,101664.63
2022-10-20T16:17:21.921Z,101663.05
2022-10-20T16:22:26.522Z,101667.87
2022-10-20T16:27:31.237Z,101667.54
2022-10-20T16:32:35.463Z,101674.24
2022-10-20T16:37:39.134Z,101676.08
2022-10-20T16:42:42.199Z,101678.84
2022-10-20T16:47:45.095Z,101680.83
2022-10-20T16:52:48.452Z,101682.19
2022-10-20T16:57:51.872Z,101679.43
2022-10-20T17:02:57.640Z,101678.78
2022-10-20T17:08:00.530Z,101675.22
2022-10-20T17:13:03.413Z,101675.42
2022-10-20T17:18:06.273Z,101679.39
2022-10-20T17:23:09.045Z,101677.98
2022-10-20T17:28:11.841Z,101676.95
2022-10-20T17:33:14.802Z,101671.96
2022-10-20T17:38:17.842Z,101671.91
2022-10-20T17:43:21.271Z,101669.77
2022-10-20T17:48:24.317Z,101664.38
2022-10-20T17:53:27.254Z,101672.30
2022-10-20T17:58:30.077Z,101671.52
2022-10-20T18:03:32.831Z,101671.25
2022-10-20T18:08:35.787Z,101670.75
2022-10-20T18:13:38.668Z,101669.48
2022-10-20T18:18:41.532Z,101664.95
2022-10-20T18:23:48.403Z,101657.89
2022-10-20T18:28:51.289Z,101659.05
2022-10-20T18:34:04.434Z,101661.11
2022-10-20T18:39:10.227Z,101659.44
2022-10-20T18:44:16.089Z,101661.58
2022-10-20T18:49:20.615Z,101668.10
2022-10-20T18:54:24.384Z,101666.94
2022-10-20T18:59:28.515Z,101660.95
2022-10-20T19:04:31.936Z,101668.31
2022-10-20T19:09:34.807Z,101667.94
2022-10-20T19:14:37.533Z,101667.63
2022-10-20T19:19:44.684Z,101664.67
2022-10-20T19:24:47.648Z,101676.03
2022-10-20T19:29:50.379Z,101675.95
2022-10-20T19:34:53.245Z,101674.73
2022-10-20T19:39:55.975Z,101674.34
2022-10-20T19:44:58.672Z,101669.78
2022-10-20T19:50:01.813Z,101677.56
2022-10-20T19:55:05.045Z,101674.34
2022-10-20T20:00:08.657Z,101667.15
2022-10-20T20:05:11.374Z,101659.17
2022-10-20T20:10:14.308Z,101651.31
2022-10-20T20:15:17.151Z,101644.29
2022-10-20T20:20:21.631Z,101638.73
2022-10-20T20:25:25.610Z,101643.39
2022-10-20T20:30:28.537Z,101648.68
2022-10-20T20:35:31.411Z,101640.62
2022-10-20T20:40:34.210Z,101635.44
2022-10-20T20:45:39.932Z,101638.55
2022-10-20T20:50:57.012Z,101634.91
2022-10-20T20:56:11.004Z,101631.17
2022-10-20T21:01:17.225Z,101624.13
2022-10-20T21:06:22.976Z,101624.65
2022-10-20T21:11:31.594Z,101620.01
2022-10-20T21:16:38.917Z,101615.68
2022-10-20T21:21:50.598Z,101611.41
2022-10-20T21:26:53.932Z,101610.93
2022-10-20T21:31:58.125Z,101599.34
2022-10-20T21:37:00.901Z,101593.19
2022-10-20T21:42:03.771Z,101586.92
2022-10-20T21:47:06.538Z,101573.52
2022-10-20T21:52:09.375Z,101575.44
2022-10-20T21:57:12.115Z,101575.14
2022-10-20T22:02:15.368Z,101572.73
2022-10-20T22:07:18.396Z,101573.46
2022-10-20T22:12:21.163Z,101579.02
2022-10-20T22:17:23.971Z,101572.80
2022-10-20T22:22:30.847Z,101569.33
2022-10-20T22:27:42.458Z,101565.08
2022-10-20T22:32:45.472Z,101560.69
2022-10-20T22:37:48.461Z,101553.51
2022-10-20T22:42:51.209Z,101540.41
2022-10-20T22:47:53.930Z,101536.52
2022-10-20T22:52:56.698Z,101529.05
2022-10-20T23:03:02.261Z,101522.13
2022-10-20T23:08:05.946Z,101509.52
2022-10-20T23:13:08.691Z,101494.64
2022-10-20T23:18:11.468Z,101506.36
2022-10-20T23:23:14.228Z,101514.44
2022-10-20T23:28:17.688Z,101516.77
2022-10-20T23:33:20.541Z,101513.09
2022-10-20T23:38:23.277Z,101511.16
2022-10-20T23:43:26.113Z,101519.70
2022-10-20T23:48:28.903Z,101520.36
2022-10-20T23:53:31.745Z,101518.46
2022-10-20T23:58:35.102Z,101516.98
